sensor_id;sensor_type;location;lat;lon;timestamp;P1;durP1;ratioP1;P2;durP2;ratioP2
19671;SDS011;9983;51.114;13.788;2023-04-24T00:02:28;3.25;;;3.03;;
19671;SDS011;9983;51.114;13.788;2023-04-24T00:07:28;3.65;;;3.35;;
19671;SDS011;9983;51.114;13.788;2023-04-24T00:12:29;3.63;;;3.22;;
19671;SDS011;9983;51.114;13.788;2023-04-24T00:17:30;5.07;;;3.88;;
19671;SDS011;9983;51.114;13.788;2023-04-24T00:22:31;3.75;;;3.45;;
19671;SDS011;9983;51.114;13.788;2023-04-24T00:27:31;5.35;;;3.40;;
19671;SDS011;9983;51.114;13.788;2023-04-24T00:32:32;3.83;;;3.53;;
19671;SDS011;9983;51.114;13.788;2023-04-24T00:37:32;4.57;;;3.50;;
19671;SDS011;9983;51.114;13.788;2023-04-24T00:42:32;3.65;;;3.35;;
19671;SDS011;9983;51.114;13.788;2023-04-24T00:47:33;3.63;;;3.33;;
19671;SDS011;9983;51.114;13.788;2023-04-24T00:52:34;4.07;;;3.55;;
19671;SDS011;9983;51.114;13.788;2023-04-24T00:57:34;4.80;;;2.88;;
19671;SDS011;9983;51.114;13.788;2023-04-24T01:02:36;5.20;;;3.10;;
19671;SDS011;9983;51.114;13.788;2023-04-24T01:07:40;3.35;;;3.05;;
19671;SDS011;9983;51.114;13.788;2023-04-24T01:12:44;3.72;;;3.28;;
19671;SDS011;9983;51.114;13.788;2023-04-24T01:17:44;3.95;;;3.00;;
19671;SDS011;9983;51.114;13.788;2023-04-24T01:22:45;3.75;;;3.35;;
19671;SDS011;9983;51.114;13.788;2023-04-24T01:27:45;2.75;;;2.55;;
19671;SDS011;9983;51.114;13.788;2023-04-24T01:32:45;3.20;;;2.90;;
19671;SDS011;9983;51.114;13.788;2023-04-24T01:37:46;3.13;;;2.90;;
19671;SDS011;9983;51.114;13.788;2023-04-24T01:42:46;2.90;;;2.60;;
19671;SDS011;9983;51.114;13.788;2023-04-24T01:47:47;3.83;;;3.20;;
19671;SDS011;9983;51.114;13.788;2023-04-24T01:52:49;3.22;;;2.92;;
19671;SDS011;9983;51.114;13.788;2023-04-24T01:57:49;3.30;;;3.00;;
19671;SDS011;9983;51.114;13.788;2023-04-24T02:02:52;3.42;;;2.70;;
19671;SDS011;9983;51.114;13.788;2023-04-24T02:07:52;4.40;;;3.85;;
19671;SDS011;9983;51.114;13.788;2023-04-24T02:12:52;3.00;;;2.80;;
19671;SDS011;9983;51.114;13.788;2023-04-24T02:17:53;4.82;;;3.17;;
19671;SDS011;9983;51.114;13.788;2023-04-24T02:22:53;3.38;;;3.08;;
19671;SDS011;9983;51.114;13.788;2023-04-24T02:27:53;4.25;;;3.25;;
19671;SDS011;9983;51.114;13.788;2023-04-24T02:32:53;3.03;;;2.83;;
19671;SDS011;9983;51.114;13.788;2023-04-24T02:37:54;3.13;;;2.83;;
19671;SDS011;9983;51.114;13.788;2023-04-24T02:42:54;3.22;;;2.92;;
19671;SDS011;9983;51.114;13.788;2023-04-24T02:47:54;3.42;;;2.92;;
19671;SDS011;9983;51.114;13.788;2023-04-24T02:52:54;4.25;;;3.15;;
19671;SDS011;9983;51.114;13.788;2023-04-24T02:57:55;3.50;;;3.03;;
19671;SDS011;9983;51.114;13.788;2023-04-24T03:02:55;3.30;;;2.65;;
19671;SDS011;9983;51.114;13.788;2023-04-24T03:07:55;3.33;;;3.00;;
19671;SDS011;9983;51.114;13.788;2023-04-24T03:12:55;3.47;;;3.17;;
19671;SDS011;9983;51.114;13.788;2023-04-24T03:17:56;3.65;;;3.28;;
19671;SDS011;9983;51.114;13.788;2023-04-24T03:22:56;3.95;;;3.40;;
19671;SDS011;9983;51.114;13.788;2023-04-24T03:27:57;3.83;;;3.42;;
19671;SDS011;9983;51.114;13.788;2023-04-24T03:32:57;3.67;;;3.03;;
19671;SDS011;9983;51.114;13.788;2023-04-24T03:37:57;4.25;;;2.90;;
19671;SDS011;9983;51.114;13.788;2023-04-24T03:42:57;4.65;;;3.40;;
19671;SDS011;9983;51.114;13.788;2023-04-24T03:47:58;4.35;;;3.10;;
19671;SDS011;9983;51.114;13.788;2023-04-24T03:52:58;3.40;;;3.15;;
19671;SDS011;9983;51.114;13.788;2023-04-24T03:57:58;3.30;;;3.00;;
19671;SDS011;9983;51.114;13.788;2023-04-24T04:02:58;2.90;;;2.38;;
19671;SDS011;9983;51.114;13.788;2023-04-24T04:07:59;3.00;;;2.80;;
19671;SDS011;9983;51.114;13.788;2023-04-24T04:13:00;2.80;;;2.38;;
19671;SDS011;9983;51.114;13.788;2023-04-24T04:18:00;2.30;;;2.10;;
19671;SDS011;9983;51.114;13.788;2023-04-24T04:23:00;2.45;;;2.00;;
19671;SDS011;9983;51.114;13.788;2023-04-24T04:28:00;2.10;;;1.90;;
19671;SDS011;9983;51.114;13.788;2023-04-24T04:33:01;1.95;;;1.77;;
19671;SDS011;9983;51.114;13.788;2023-04-24T04:38:02;2.45;;;1.35;;
19671;SDS011;9983;51.114;13.788;2023-04-24T04:43:02;2.63;;;1.20;;
19671;SDS011;9983;51.114;13.788;2023-04-24T04:48:03;1.17;;;1.08;;
19671;SDS011;9983;51.114;13.788;2023-04-24T04:53:03;1.10;;;1.10;;
19671;SDS011;9983;51.114;13.788;2023-04-24T04:58:04;1.00;;;1.00;;
19671;SDS011;9983;51.114;13.788;2023-04-24T05:03:04;0.80;;;0.80;;
19671;SDS011;9983;51.114;13.788;2023-04-24T05:08:05;3.28;;;1.20;;
19671;SDS011;9983;51.114;13.788;2023-04-24T05:13:05;0.80;;;0.80;;
19671;SDS011;9983;51.114;13.788;2023-04-24T05:18:05;1.33;;;0.90;;
19671;SDS011;9983;51.114;13.788;2023-04-24T05:23:05;1.70;;;0.75;;
19671;SDS011;9983;51.114;13.788;2023-04-24T05:28:06;1.43;;;1.13;;
19671;SDS011;9983;51.114;13.788;2023-04-24T05:33:06;1.50;;;0.90;;
19671;SDS011;9983;51.114;13.788;2023-04-24T05:38:06;1.35;;;1.00;;
19671;SDS011;9983;51.114;13.788;2023-04-24T05:43:06;0.98;;;0.90;;
19671;SDS011;9983;51.114;13.788;2023-04-24T05:48:07;1.13;;;0.93;;
19671;SDS011;9983;51.114;13.788;2023-04-24T05:53:07;1.10;;;1.00;;
19671;SDS011;9983;51.114;13.788;2023-04-24T05:58:07;1.75;;;1.40;;
19671;SDS011;9983;51.114;13.788;2023-04-24T06:03:08;1.00;;;1.00;;
19671;SDS011;9983;51.114;13.788;2023-04-24T06:08:08;1.33;;;1.00;;
19671;SDS011;9983;51.114;13.788;2023-04-24T06:13:09;1.33;;;1.23;;
19671;SDS011;9983;51.114;13.788;2023-04-24T06:18:10;1.02;;;1.02;;
19671;SDS011;9983;51.114;13.788;2023-04-24T06:23:10;1.85;;;1.42;;
19671;SDS011;9983;51.114;13.788;2023-04-24T06:28:10;2.33;;;0.75;;
19671;SDS011;9983;51.114;13.788;2023-04-24T06:33:10;1.15;;;0.85;;
19671;SDS011;9983;51.114;13.788;2023-04-24T06:38:11;1.35;;;1.08;;
19671;SDS011;9983;51.114;13.788;2023-04-24T06:43:11;2.47;;;1.02;;
19671;SDS011;9983;51.114;13.788;2023-04-24T06:48:11;2.05;;;0.80;;
19671;SDS011;9983;51.114;13.788;2023-04-24T06:53:12;1.70;;;0.83;;
19671;SDS011;9983;51.114;13.788;2023-04-24T06:58:14;1.42;;;1.00;;
19671;SDS011;9983;51.114;13.788;2023-04-24T07:03:15;0.85;;;0.80;;
19671;SDS011;9983;51.114;13.788;2023-04-24T07:08:15;0.90;;;0.70;;
19671;SDS011;9983;51.114;13.788;2023-04-24T07:13:17;0.80;;;0.80;;
19671;SDS011;9983;51.114;13.788;2023-04-24T07:18:17;1.58;;;0.65;;
19671;SDS011;9983;51.114;13.788;2023-04-24T07:23:18;5.50;;;0.70;;
19671;SDS011;9983;51.114;13.788;2023-04-24T07:28:20;1.88;;;1.20;;
19671;SDS011;9983;51.114;13.788;2023-04-24T07:33:20;2.53;;;0.70;;
19671;SDS011;9983;51.114;13.788;2023-04-24T07:38:20;0.73;;;0.73;;
19671;SDS011;9983;51.114;13.788;2023-04-24T07:43:22;1.65;;;1.00;;
19671;SDS011;9983;51.114;13.788;2023-04-24T07:48:23;0.93;;;0.60;;
19671;SDS011;9983;51.114;13.788;2023-04-24T07:53:26;0.73;;;0.73;;
19671;SDS011;9983;51.114;13.788;2023-04-24T07:58:26;0.97;;;0.70;;
19671;SDS011;9983;51.114;13.788;2023-04-24T08:03:26;1.02;;;0.70;;
19671;SDS011;9983;51.114;13.788;2023-04-24T08:08:26;3.25;;;0.80;;
19671;SDS011;9983;51.114;13.788;2023-04-24T08:13:27;1.00;;;0.90;;
19671;SDS011;9983;51.114;13.788;2023-04-24T08:18:27;1.58;;;0.70;;
19671;SDS011;9983;51.114;13.788;2023-04-24T08:23:27;3.03;;;0.77;;
19671;SDS011;9983;51.114;13.788;2023-04-24T08:28:28;2.13;;;0.50;;
19671;SDS011;9983;51.114;13.788;2023-04-24T08:33:29;0.75;;;0.70;;
19671;SDS011;9983;51.114;13.788;2023-04-24T08:38:34;1.05;;;0.60;;
19671;SDS011;9983;51.114;13.788;2023-04-24T08:43:34;0.53;;;0.53;;
19671;SDS011;9983;51.114;13.788;2023-04-24T08:48:36;1.17;;;0.52;;
19671;SDS011;9983;51.114;13.788;2023-04-24T08:53:38;1.02;;;0.63;;
19671;SDS011;9983;51.114;13.788;2023-04-24T08:58:38;1.00;;;0.75;;
19671;SDS011;9983;51.114;13.788;2023-04-24T09:03:39;0.50;;;0.50;;
19671;SDS011;9983;51.114;13.788;2023-04-24T09:08:40;2.15;;;0.60;;
19671;SDS011;9983;51.114;13.788;2023-04-24T09:13:41;0.85;;;0.60;;
19671;SDS011;9983;51.114;13.788;2023-04-24T09:18:41;1.48;;;0.68;;
19671;SDS011;9983;51.114;13.788;2023-04-24T09:23:42;1.48;;;1.38;;
19671;SDS011;9983;51.114;13.788;2023-04-24T09:28:42;1.02;;;0.68;;
19671;SDS011;9983;51.114;13.788;2023-04-24T09:38:53;0.57;;;0.57;;
19671;SDS011;9983;51.114;13.788;2023-04-24T09:44:10;4.85;;;0.70;;
19671;SDS011;9983;51.114;13.788;2023-04-24T09:49:12;1.27;;;1.00;;
19671;SDS011;9983;51.114;13.788;2023-04-24T09:54:16;0.93;;;0.70;;
19671;SDS011;9983;51.114;13.788;2023-04-24T09:59:19;0.75;;;0.75;;
19671;SDS011;9983;51.114;13.788;2023-04-24T10:04:21;0.75;;;0.63;;
19671;SDS011;9983;51.114;13.788;2023-04-24T10:09:23;1.90;;;0.90;;
19671;SDS011;9983;51.114;13.788;2023-04-24T10:14:25;0.57;;;0.50;;
19671;SDS011;9983;51.114;13.788;2023-04-24T10:19:26;0.60;;;0.60;;
19671;SDS011;9983;51.114;13.788;2023-04-24T10:24:26;1.02;;;0.90;;
19671;SDS011;9983;51.114;13.788;2023-04-24T10:29:27;0.82;;;0.60;;
19671;SDS011;9983;51.114;13.788;2023-04-24T10:34:30;0.90;;;0.63;;
19671;SDS011;9983;51.114;13.788;2023-04-24T10:39:30;2.15;;;0.70;;
19671;SDS011;9983;51.114;13.788;2023-04-24T10:44:36;0.82;;;0.57;;
19671;SDS011;9983;51.114;13.788;2023-04-24T10:49:36;1.92;;;0.77;;
19671;SDS011;9983;51.114;13.788;2023-04-24T10:59:40;0.75;;;0.55;;
19671;SDS011;9983;51.114;13.788;2023-04-24T11:04:41;1.13;;;0.50;;
19671;SDS011;9983;51.114;13.788;2023-04-24T11:09:42;0.65;;;0.57;;
19671;SDS011;9983;51.114;13.788;2023-04-24T11:20:03;0.43;;;0.43;;
19671;SDS011;9983;51.114;13.788;2023-04-24T11:25:06;1.15;;;0.60;;
19671;SDS011;9983;51.114;13.788;2023-04-24T11:30:08;1.50;;;0.85;;
19671;SDS011;9983;51.114;13.788;2023-04-24T11:35:14;2.35;;;0.65;;
19671;SDS011;9983;51.114;13.788;2023-04-24T11:40:17;2.17;;;0.60;;
19671;SDS011;9983;51.114;13.788;2023-04-24T11:45:23;1.98;;;1.13;;
19671;SDS011;9983;51.114;13.788;2023-04-24T11:50:26;0.68;;;0.60;;
19671;SDS011;9983;51.114;13.788;2023-04-24T11:55:28;0.50;;;0.50;;
19671;SDS011;9983;51.114;13.788;2023-04-24T12:00:29;0.68;;;0.47;;
19671;SDS011;9983;51.114;13.788;2023-04-24T12:05:31;0.60;;;0.60;;
19671;SDS011;9983;51.114;13.788;2023-04-24T12:10:32;0.87;;;0.50;;
19671;SDS011;9983;51.114;13.788;2023-04-24T12:15:34;0.93;;;0.65;;
19671;SDS011;9983;51.114;13.788;2023-04-24T12:20:35;0.73;;;0.65;;
19671;SDS011;9983;51.114;13.788;2023-04-24T12:25:35;1.90;;;0.68;;
19671;SDS011;9983;51.114;13.788;2023-04-24T12:30:47;1.65;;;0.80;;
19671;SDS011;9983;51.114;13.788;2023-04-24T12:35:51;0.70;;;0.70;;
19671;SDS011;9983;51.114;13.788;2023-04-24T12:41:03;0.50;;;0.40;;
19671;SDS011;9983;51.114;13.788;2023-04-24T12:46:08;0.77;;;0.77;;
19671;SDS011;9983;51.114;13.788;2023-04-24T12:51:08;0.75;;;0.75;;
19671;SDS011;9983;51.114;13.788;2023-04-24T12:56:08;1.05;;;0.80;;
19671;SDS011;9983;51.114;13.788;2023-04-24T13:01:09;1.17;;;0.82;;
19671;SDS011;9983;51.114;13.788;2023-04-24T13:06:09;1.23;;;0.75;;
19671;SDS011;9983;51.114;13.788;2023-04-24T13:11:09;1.40;;;0.68;;
19671;SDS011;9983;51.114;13.788;2023-04-24T13:16:09;1.45;;;0.93;;
19671;SDS011;9983;51.114;13.788;2023-04-24T13:21:10;0.85;;;0.80;;
19671;SDS011;9983;51.114;13.788;2023-04-24T13:26:10;2.60;;;0.68;;
19671;SDS011;9983;51.114;13.788;2023-04-24T13:31:11;0.98;;;0.90;;
19671;SDS011;9983;51.114;13.788;2023-04-24T13:36:11;0.88;;;0.88;;
19671;SDS011;9983;51.114;13.788;2023-04-24T13:41:11;0.70;;;0.70;;
19671;SDS011;9983;51.114;13.788;2023-04-24T13:46:12;1.48;;;1.10;;
19671;SDS011;9983;51.114;13.788;2023-04-24T13:51:12;1.20;;;1.08;;
19671;SDS011;9983;51.114;13.788;2023-04-24T13:56:12;0.85;;;0.85;;
19671;SDS011;9983;51.114;13.788;2023-04-24T14:01:14;1.27;;;1.00;;
19671;SDS011;9983;51.114;13.788;2023-04-24T14:06:15;1.00;;;0.90;;
19671;SDS011;9983;51.114;13.788;2023-04-24T14:11:15;1.20;;;0.80;;
19671;SDS011;9983;51.114;13.788;2023-04-24T14:16:16;0.80;;;0.73;;
19671;SDS011;9983;51.114;13.788;2023-04-24T14:21:17;0.77;;;0.77;;
19671;SDS011;9983;51.114;13.788;2023-04-24T14:26:17;1.77;;;0.90;;
19671;SDS011;9983;51.114;13.788;2023-04-24T14:31:17;1.35;;;0.90;;
19671;SDS011;9983;51.114;13.788;2023-04-24T14:36:18;0.75;;;0.75;;
19671;SDS011;9983;51.114;13.788;2023-04-24T14:41:18;1.63;;;0.90;;
19671;SDS011;9983;51.114;13.788;2023-04-24T14:46:18;1.00;;;1.00;;
19671;SDS011;9983;51.114;13.788;2023-04-24T14:51:19;0.80;;;0.80;;
19671;SDS011;9983;51.114;13.788;2023-04-24T14:56:19;1.25;;;0.80;;
19671;SDS011;9983;51.114;13.788;2023-04-24T15:01:20;0.90;;;0.90;;
19671;SDS011;9983;51.114;13.788;2023-04-24T15:06:20;0.80;;;0.80;;
19671;SDS011;9983;51.114;13.788;2023-04-24T15:11:20;1.30;;;1.20;;
19671;SDS011;9983;51.114;13.788;2023-04-24T15:16:21;2.42;;;1.20;;
19671;SDS011;9983;51.114;13.788;2023-04-24T15:21:21;1.27;;;0.93;;
19671;SDS011;9983;51.114;13.788;2023-04-24T15:26:23;2.15;;;1.10;;
19671;SDS011;9983;51.114;13.788;2023-04-24T15:31:23;0.70;;;0.70;;
19671;SDS011;9983;51.114;13.788;2023-04-24T15:36:24;0.93;;;0.93;;
19671;SDS011;9983;51.114;13.788;2023-04-24T15:41:24;1.17;;;0.90;;
19671;SDS011;9983;51.114;13.788;2023-04-24T15:46:24;0.90;;;0.90;;
19671;SDS011;9983;51.114;13.788;2023-04-24T15:51:25;0.90;;;0.90;;
19671;SDS011;9983;51.114;13.788;2023-04-24T15:56:25;1.15;;;0.98;;
19671;SDS011;9983;51.114;13.788;2023-04-24T16:01:25;1.40;;;0.90;;
19671;SDS011;9983;51.114;13.788;2023-04-24T16:06:26;1.10;;;1.00;;
19671;SDS011;9983;51.114;13.788;2023-04-24T16:11:26;0.95;;;0.95;;
19671;SDS011;9983;51.114;13.788;2023-04-24T16:16:27;2.05;;;1.00;;
19671;SDS011;9983;51.114;13.788;2023-04-24T16:21:27;0.70;;;0.70;;
19671;SDS011;9983;51.114;13.788;2023-04-24T16:26:27;1.00;;;0.80;;
19671;SDS011;9983;51.114;13.788;2023-04-24T16:31:27;0.80;;;0.80;;
19671;SDS011;9983;51.114;13.788;2023-04-24T16:36:28;0.90;;;0.90;;
19671;SDS011;9983;51.114;13.788;2023-04-24T16:41:28;0.93;;;0.93;;
19671;SDS011;9983;51.114;13.788;2023-04-24T16:46:28;0.93;;;0.93;;
19671;SDS011;9983;51.114;13.788;2023-04-24T16:51:29;2.22;;;1.13;;
19671;SDS011;9983;51.114;13.788;2023-04-24T16:56:30;1.05;;;1.05;;
19671;SDS011;9983;51.114;13.788;2023-04-24T17:01:31;0.93;;;0.93;;
19671;SDS011;9983;51.114;13.788;2023-04-24T17:06:31;1.23;;;0.85;;
19671;SDS011;9983;51.114;13.788;2023-04-24T17:11:31;2.88;;;1.25;;
19671;SDS011;9983;51.114;13.788;2023-04-24T17:16:32;1.35;;;0.95;;
19671;SDS011;9983;51.114;13.788;2023-04-24T17:21:32;1.23;;;1.13;;
19671;SDS011;9983;51.114;13.788;2023-04-24T17:26:33;1.02;;;0.90;;
19671;SDS011;9983;51.114;13.788;2023-04-24T17:31:33;0.88;;;0.88;;
19671;SDS011;9983;51.114;13.788;2023-04-24T17:36:33;0.80;;;0.80;;
19671;SDS011;9983;51.114;13.788;2023-04-24T17:41:34;0.90;;;0.90;;
19671;SDS011;9983;51.114;13.788;2023-04-24T17:46:34;1.02;;;0.80;;
19671;SDS011;9983;51.114;13.788;2023-04-24T17:51:35;1.17;;;0.50;;
19671;SDS011;9983;51.114;13.788;2023-04-24T17:56:35;0.98;;;0.40;;
19671;SDS011;9983;51.114;13.788;2023-04-24T18:01:35;0.73;;;0.73;;
19671;SDS011;9983;51.114;13.788;2023-04-24T18:06:35;1.58;;;0.70;;
19671;SDS011;9983;51.114;13.788;2023-04-24T18:11:36;0.83;;;0.40;;
19671;SDS011;9983;51.114;13.788;2023-04-24T18:16:36;1.52;;;0.60;;
19671;SDS011;9983;51.114;13.788;2023-04-24T18:21:36;1.00;;;0.90;;
19671;SDS011;9983;51.114;13.788;2023-04-24T18:26:37;0.50;;;0.50;;
19671;SDS011;9983;51.114;13.788;2023-04-24T18:31:37;0.57;;;0.55;;
19671;SDS011;9983;51.114;13.788;2023-04-24T18:36:37;1.15;;;0.70;;
19671;SDS011;9983;51.114;13.788;2023-04-24T18:41:38;0.70;;;0.70;;
19671;SDS011;9983;51.114;13.788;2023-04-24T18:46:38;0.57;;;0.57;;
19671;SDS011;9983;51.114;13.788;2023-04-24T18:51:41;0.60;;;0.60;;
19671;SDS011;9983;51.114;13.788;2023-04-24T18:56:41;1.15;;;0.60;;
19671;SDS011;9983;51.114;13.788;2023-04-24T19:01:41;0.50;;;0.50;;
19671;SDS011;9983;51.114;13.788;2023-04-24T19:06:42;1.85;;;0.77;;
19671;SDS011;9983;51.114;13.788;2023-04-24T19:11:42;1.27;;;0.70;;
19671;SDS011;9983;51.114;13.788;2023-04-24T19:16:43;0.60;;;0.60;;
19671;SDS011;9983;51.114;13.788;2023-04-24T19:21:44;0.70;;;0.70;;
19671;SDS011;9983;51.114;13.788;2023-04-24T19:26:46;0.70;;;0.70;;
19671;SDS011;9983;51.114;13.788;2023-04-24T19:31:46;0.85;;;0.85;;
19671;SDS011;9983;51.114;13.788;2023-04-24T19:36:46;0.90;;;0.90;;
19671;SDS011;9983;51.114;13.788;2023-04-24T19:41:47;0.80;;;0.80;;
19671;SDS011;9983;51.114;13.788;2023-04-24T19:46:47;1.13;;;1.10;;
19671;SDS011;9983;51.114;13.788;2023-04-24T19:51:47;0.85;;;0.85;;
19671;SDS011;9983;51.114;13.788;2023-04-24T19:56:48;1.00;;;1.00;;
19671;SDS011;9983;51.114;13.788;2023-04-24T20:01:48;2.45;;;1.00;;
19671;SDS011;9983;51.114;13.788;2023-04-24T20:06:49;0.93;;;0.93;;
19671;SDS011;9983;51.114;13.788;2023-04-24T20:11:50;1.40;;;1.10;;
19671;SDS011;9983;51.114;13.788;2023-04-24T20:16:52;1.00;;;1.00;;
19671;SDS011;9983;51.114;13.788;2023-04-24T20:21:53;1.30;;;1.10;;
19671;SDS011;9983;51.114;13.788;2023-04-24T20:26:53;1.38;;;1.30;;
19671;SDS011;9983;51.114;13.788;2023-04-24T20:31:54;1.40;;;1.30;;
19671;SDS011;9983;51.114;13.788;2023-04-24T20:36:54;1.30;;;1.20;;
19671;SDS011;9983;51.114;13.788;2023-04-24T20:41:56;1.88;;;1.27;;
19671;SDS011;9983;51.114;13.788;2023-04-24T20:46:57;1.60;;;1.30;;
19671;SDS011;9983;51.114;13.788;2023-04-24T20:51:57;1.27;;;1.25;;
19671;SDS011;9983;51.114;13.788;2023-04-24T20:56:58;1.13;;;1.13;;
19671;SDS011;9983;51.114;13.788;2023-04-24T21:01:58;4.03;;;1.77;;
19671;SDS011;9983;51.114;13.788;2023-04-24T21:06:58;1.52;;;1.42;;
19671;SDS011;9983;51.114;13.788;2023-04-24T21:11:59;2.40;;;1.55;;
19671;SDS011;9983;51.114;13.788;2023-04-24T21:16:59;2.50;;;1.73;;
19671;SDS011;9983;51.114;13.788;2023-04-24T21:22:00;1.70;;;1.60;;
19671;SDS011;9983;51.114;13.788;2023-04-24T21:27:01;1.67;;;1.58;;
19671;SDS011;9983;51.114;13.788;2023-04-24T21:32:02;2.17;;;1.83;;
19671;SDS011;9983;51.114;13.788;2023-04-24T21:37:02;2.45;;;1.77;;
19671;SDS011;9983;51.114;13.788;2023-04-24T21:42:03;2.92;;;2.10;;
19671;SDS011;9983;51.114;13.788;2023-04-24T21:47:03;3.88;;;1.75;;
19671;SDS011;9983;51.114;13.788;2023-04-24T21:52:03;3.05;;;2.42;;
19671;SDS011;9983;51.114;13.788;2023-04-24T21:57:03;2.65;;;2.10;;
19671;SDS011;9983;51.114;13.788;2023-04-24T22:02:04;4.30;;;2.33;;
19671;SDS011;9983;51.114;13.788;2023-04-24T22:07:05;2.33;;;2.10;;
19671;SDS011;9983;51.114;13.788;2023-04-24T22:12:05;2.25;;;2.05;;
19671;SDS011;9983;51.114;13.788;2023-04-24T22:17:05;5.72;;;4.47;;
19671;SDS011;9983;51.114;13.788;2023-04-24T22:22:06;5.03;;;3.80;;
19671;SDS011;9983;51.114;13.788;2023-04-24T22:27:06;2.72;;;2.53;;
19671;SDS011;9983;51.114;13.788;2023-04-24T22:32:06;3.47;;;3.17;;
19671;SDS011;9983;51.114;13.788;2023-04-24T22:37:07;3.85;;;2.90;;
19671;SDS011;9983;51.114;13.788;2023-04-24T22:42:07;3.47;;;2.38;;
19671;SDS011;9983;51.114;13.788;2023-04-24T22:47:07;2.20;;;2.00;;
19671;SDS011;9983;51.114;13.788;2023-04-24T22:52:08;4.20;;;2.25;;
19671;SDS011;9983;51.114;13.788;2023-04-24T22:57:08;3.30;;;2.20;;
19671;SDS011;9983;51.114;13.788;2023-04-24T23:02:08;2.85;;;1.77;;
19671;SDS011;9983;51.114;13.788;2023-04-24T23:07:09;2.60;;;1.80;;
19671;SDS011;9983;51.114;13.788;2023-04-24T23:12:09;3.92;;;2.17;;
19671;SDS011;9983;51.114;13.788;2023-04-24T23:17:09;2.63;;;2.00;;
19671;SDS011;9983;51.114;13.788;2023-04-24T23:22:09;3.42;;;1.80;;
19671;SDS011;9983;51.114;13.788;2023-04-24T23:27:10;2.05;;;1.92;;
19671;SDS011;9983;51.114;13.788;2023-04-24T23:32:10;4.40;;;1.88;;
19671;SDS011;9983;51.114;13.788;2023-04-24T23:37:10;3.38;;;1.80;;
19671;SDS011;9983;51.114;13.788;2023-04-24T23:42:11;2.10;;;1.88;;
19671;SDS011;9983;51.114;13.788;2023-04-24T23:47:11;2.10;;;1.90;;
19671;SDS011;9983;51.114;13.788;2023-04-24T23:52:11;2.00;;;1.80;;
19671;SDS011;9983;51.114;13.788;2023-04-24T23:57:11;2.20;;;1.80;;
